AVA9613 SKSP-SKCL
Flight info
| Callsign | AVA9613 |
|---|---|
| Flight time | N/A |
| Altitude | 35000 |
| Route | BIXOX2B BIXOX DCT MORLI UN420 BUSMO UW90 ASIKO ASIKO3B |
| Aircraft | A319/M-SDE3FGHIRWY/LB1 |
Departure
| Time | 2026-05-05 21:39 |
|---|---|
| Airport | Gustavo Rojas Pinilla International Airport (SKSP) |
Arrival
| Time | N/A |
|---|---|
| Airport | Alfonso Bonilla Aragon International Airport (SKCL) |
| Time | Latitude | Longitude | Altitude | Speed | Heading |
|---|---|---|---|---|---|
| 2026-05-05 21:14 | 12.58689 | -81.70229 | 11 ft | 0 kts | 149° |
| 2026-05-05 21:29 | 12.58690 | -81.70230 | 11 ft | 2 kts | 149° |
| 2026-05-05 21:29 | 12.58712 | -81.70243 | 11 ft | 4 kts | 147° |
| 2026-05-05 21:29 | 12.58731 | -81.70256 | 12 ft | 2 kts | 152° |
| 2026-05-05 21:30 | 12.58755 | -81.70264 | 12 ft | 4 kts | 172° |
| 2026-05-05 21:30 | 12.58765 | -81.70266 | 14 ft | 0 kts | 171° |
| 2026-05-05 21:32 | 12.58762 | -81.70265 | 12 ft | 2 kts | 172° |
| 2026-05-05 21:33 | 12.58744 | -81.70276 | 14 ft | 4 kts | 232° |
| 2026-05-05 21:33 | 12.58729 | -81.70305 | 13 ft | 6 kts | 244° |
| 2026-05-05 21:33 | 12.58712 | -81.70344 | 14 ft | 8 kts | 249° |
| 2026-05-05 21:33 | 12.58727 | -81.70405 | 16 ft | 11 kts | 296° |
| 2026-05-05 21:34 | 12.58733 | -81.70486 | 17 ft | 14 kts | 237° |
| 2026-05-05 21:34 | 12.58678 | -81.70576 | 16 ft | 16 kts | 238° |
| 2026-05-05 21:34 | 12.58617 | -81.70677 | 20 ft | 17 kts | 239° |
| 2026-05-05 21:34 | 12.58556 | -81.70784 | 23 ft | 18 kts | 240° |
| 2026-05-05 21:35 | 12.58489 | -81.70899 | 23 ft | 19 kts | 238° |
| 2026-05-05 21:35 | 12.58421 | -81.71017 | 25 ft | 19 kts | 239° |
| 2026-05-05 21:35 | 12.58352 | -81.71136 | 25 ft | 20 kts | 239° |
| 2026-05-05 21:35 | 12.58277 | -81.71266 | 25 ft | 22 kts | 239° |
| 2026-05-05 21:36 | 12.58199 | -81.71402 | 24 ft | 23 kts | 239° |
| 2026-05-05 21:36 | 12.58114 | -81.71549 | 24 ft | 24 kts | 239° |
| 2026-05-05 21:36 | 12.58037 | -81.71700 | 26 ft | 24 kts | 243° |
| 2026-05-05 21:36 | 12.57955 | -81.71855 | 28 ft | 25 kts | 240° |
| 2026-05-05 21:37 | 12.57877 | -81.71998 | 31 ft | 15 kts | 235° |
| 2026-05-05 21:37 | 12.57861 | -81.71991 | 31 ft | 1 kts | 98° |
| 2026-05-05 21:37 | 12.57866 | -81.71974 | 31 ft | 3 kts | 64° |
| 2026-05-05 21:37 | 12.57869 | -81.71969 | 31 ft | 0 kts | 60° |
| 2026-05-05 21:38 | 12.57871 | -81.71965 | 31 ft | 4 kts | 60° |
| 2026-05-05 21:38 | 12.57944 | -81.71837 | 28 ft | 50 kts | 59° |
| 2026-05-05 21:38 | 12.58230 | -81.71343 | 25 ft | 109 kts | 59° |
| 2026-05-05 21:39 | 12.58698 | -81.70528 | 112 ft | 148 kts | 60° |
| 2026-05-05 21:39 | 12.59232 | -81.69613 | 666 ft | 152 kts | 61° |
| 2026-05-05 21:39 | 12.59802 | -81.68688 | 1207 ft | 155 kts | 59° |
| 2026-05-05 21:39 | 12.60388 | -81.67748 | 1746 ft | 160 kts | 59° |
| 2026-05-05 21:40 | 12.60865 | -81.66679 | 2123 ft | 173 kts | 73° |
| 2026-05-05 21:40 | 12.61028 | -81.65860 | 2356 ft | 183 kts | 83° |
| 2026-05-05 21:40 | 12.60917 | -81.64003 | 2775 ft | 212 kts | 101° |
| 2026-05-05 21:40 | 12.60604 | -81.63015 | 3014 ft | 230 kts | 111° |
| 2026-05-05 21:41 | 12.59692 | -81.61563 | 3431 ft | 256 kts | 130° |
| 2026-05-05 21:41 | 12.57695 | -81.60172 | 4501 ft | 271 kts | 156° |
| 2026-05-05 21:41 | 12.55821 | -81.59793 | 5364 ft | 280 kts | 176° |
| 2026-05-05 21:41 | 12.54499 | -81.59775 | 5949 ft | 282 kts | 178° |
| 2026-05-05 21:42 | 12.52520 | -81.59755 | 6770 ft | 286 kts | 177° |
| 2026-05-05 21:42 | 12.50521 | -81.59733 | 7553 ft | 290 kts | 177° |
| 2026-05-05 21:42 | 12.48493 | -81.59710 | 8339 ft | 293 kts | 176° |
| 2026-05-05 21:42 | 12.46463 | -81.59685 | 9099 ft | 297 kts | 177° |
| 2026-05-05 21:43 | 12.44382 | -81.59656 | 9853 ft | 301 kts | 176° |
| 2026-05-05 21:43 | 12.42236 | -81.59623 | 10212 ft | 319 kts | 176° |
| 2026-05-05 21:43 | 12.39959 | -81.59457 | 10475 ft | 335 kts | 167° |
| 2026-05-05 21:43 | 12.37736 | -81.58726 | 11019 ft | 337 kts | 152° |
| 2026-05-05 21:44 | 12.35703 | -81.57585 | 11956 ft | 325 kts | 148° |
| 2026-05-05 21:44 | 12.33777 | -81.56483 | 13117 ft | 313 kts | 149° |
| 2026-05-05 21:44 | 12.31881 | -81.55402 | 13872 ft | 312 kts | 149° |
| 2026-05-05 21:44 | 12.29975 | -81.54314 | 14475 ft | 314 kts | 148° |
| 2026-05-05 21:45 | 12.28060 | -81.53219 | 15079 ft | 317 kts | 149° |
| 2026-05-05 21:45 | 12.26126 | -81.52111 | 15656 ft | 320 kts | 148° |
| 2026-05-05 21:45 | 12.24176 | -81.50994 | 16239 ft | 323 kts | 148° |
| 2026-05-05 21:45 | 12.22203 | -81.49862 | 16824 ft | 326 kts | 148° |
| 2026-05-05 21:46 | 12.20214 | -81.48724 | 17390 ft | 329 kts | 148° |
| 2026-05-05 21:46 | 12.18207 | -81.47576 | 17969 ft | 332 kts | 148° |
| 2026-05-05 21:46 | 12.16181 | -81.46419 | 18500 ft | 335 kts | 149° |
| 2026-05-05 21:46 | 12.14140 | -81.45252 | 18983 ft | 338 kts | 148° |
| 2026-05-05 21:47 | 12.12074 | -81.44071 | 19455 ft | 341 kts | 148° |
| 2026-05-05 21:47 | 12.09991 | -81.42879 | 19962 ft | 344 kts | 148° |
| 2026-05-05 21:47 | 12.07888 | -81.41677 | 20426 ft | 348 kts | 148° |
| 2026-05-05 21:47 | 12.05770 | -81.40464 | 20897 ft | 351 kts | 148° |
| 2026-05-05 21:48 | 12.03631 | -81.39242 | 21351 ft | 354 kts | 148° |
| 2026-05-05 21:48 | 12.01475 | -81.38013 | 21803 ft | 357 kts | 148° |
| 2026-05-05 21:48 | 11.99298 | -81.36770 | 22247 ft | 360 kts | 148° |
| 2026-05-05 21:48 | 11.97109 | -81.35518 | 22692 ft | 362 kts | 148° |
| 2026-05-05 21:49 | 11.94892 | -81.34251 | 23121 ft | 366 kts | 148° |
| 2026-05-05 21:49 | 11.92663 | -81.32976 | 23540 ft | 368 kts | 148° |
| 2026-05-05 21:49 | 11.90419 | -81.31694 | 23905 ft | 371 kts | 149° |
| 2026-05-05 21:49 | 11.88150 | -81.30399 | 24245 ft | 375 kts | 148° |
| 2026-05-05 21:50 | 11.85866 | -81.29096 | 24615 ft | 378 kts | 149° |
| 2026-05-05 21:50 | 11.83598 | -81.27801 | 24960 ft | 381 kts | 149° |
| 2026-05-05 21:50 | 11.81275 | -81.26473 | 25320 ft | 384 kts | 149° |
| 2026-05-05 21:50 | 11.78936 | -81.25141 | 25676 ft | 386 kts | 149° |
| 2026-05-05 21:51 | 11.76577 | -81.23798 | 26045 ft | 389 kts | 149° |
| 2026-05-05 21:51 | 11.74208 | -81.22450 | 26420 ft | 392 kts | 149° |
| 2026-05-05 21:51 | 11.71815 | -81.21087 | 26785 ft | 395 kts | 149° |
| 2026-05-05 21:51 | 11.69409 | -81.19717 | 27135 ft | 398 kts | 149° |
| 2026-05-05 21:52 | 11.64551 | -81.16950 | 27914 ft | 402 kts | 150° |
| 2026-05-05 21:52 | 11.62100 | -81.15557 | 28273 ft | 405 kts | 149° |
| 2026-05-05 21:52 | 11.59633 | -81.14152 | 28655 ft | 407 kts | 150° |
| 2026-05-05 21:53 | 11.57153 | -81.12741 | 29040 ft | 409 kts | 149° |
| 2026-05-05 21:53 | 11.54651 | -81.11317 | 29296 ft | 415 kts | 149° |
| 2026-05-05 21:53 | 11.52113 | -81.09857 | 29433 ft | 423 kts | 149° |
| 2026-05-05 21:53 | 11.49529 | -81.08358 | 29561 ft | 431 kts | 149° |
| 2026-05-05 21:54 | 11.46904 | -81.06831 | 29703 ft | 438 kts | 149° |
| 2026-05-05 21:54 | 11.44233 | -81.05280 | 29837 ft | 445 kts | 149° |
| 2026-05-05 21:54 | 11.41556 | -81.03727 | 29969 ft | 452 kts | 150° |
| 2026-05-05 21:54 | 11.38797 | -81.02132 | 30084 ft | 458 kts | 149° |
| 2026-05-05 21:55 | 11.35999 | -81.00521 | 30237 ft | 463 kts | 150° |
| 2026-05-05 21:55 | 11.33183 | -80.98902 | 30490 ft | 465 kts | 150° |
| 2026-05-05 21:55 | 11.30367 | -80.97279 | 30728 ft | 467 kts | 150° |
| 2026-05-05 21:55 | 11.27527 | -80.95641 | 30923 ft | 470 kts | 150° |
| 2026-05-05 21:56 | 11.24680 | -80.93999 | 31179 ft | 471 kts | 150° |
| 2026-05-05 21:56 | 11.21817 | -80.92347 | 31368 ft | 475 kts | 150° |
| 2026-05-05 21:56 | 11.18939 | -80.90690 | 31646 ft | 475 kts | 150° |
| 2026-05-05 21:56 | 11.16067 | -80.89037 | 32036 ft | 473 kts | 150° |
| 2026-05-05 21:57 | 11.13206 | -80.87390 | 32403 ft | 472 kts | 150° |
| 2026-05-05 21:57 | 11.10352 | -80.85743 | 32783 ft | 471 kts | 150° |
| 2026-05-05 21:57 | 11.07509 | -80.84098 | 33158 ft | 470 kts | 150° |
| 2026-05-05 21:57 | 11.04669 | -80.82459 | 33518 ft | 469 kts | 150° |
| 2026-05-05 21:58 | 11.01827 | -80.80825 | 33879 ft | 469 kts | 150° |
| 2026-05-05 21:58 | 10.98990 | -80.79195 | 34194 ft | 468 kts | 150° |
| 2026-05-05 21:58 | 10.96152 | -80.77565 | 34507 ft | 468 kts | 150° |
| 2026-05-05 21:58 | 10.93324 | -80.75943 | 34797 ft | 467 kts | 150° |
| 2026-05-05 21:59 | 10.90497 | -80.74320 | 34876 ft | 463 kts | 150° |
| 2026-05-05 21:59 | 10.84983 | -80.71151 | 34891 ft | 456 kts | 150° |
| 2026-05-05 22:00 | 10.79466 | -80.67978 | 34894 ft | 455 kts | 150° |
| 2026-05-05 22:00 | 10.73948 | -80.64807 | 34895 ft | 456 kts | 151° |
| 2026-05-05 22:01 | 10.68430 | -80.61637 | 34891 ft | 455 kts | 150° |
| 2026-05-05 22:01 | 10.62896 | -80.58500 | 34887 ft | 454 kts | 151° |
| 2026-05-05 22:02 | 10.57346 | -80.55415 | 34884 ft | 454 kts | 152° |
| 2026-05-05 22:02 | 10.51794 | -80.52331 | 34888 ft | 454 kts | 151° |
| 2026-05-05 22:03 | 10.46247 | -80.49235 | 34887 ft | 454 kts | 151° |
| 2026-05-05 22:03 | 10.40712 | -80.46138 | 34893 ft | 454 kts | 150° |
| 2026-05-05 22:04 | 10.35211 | -80.43067 | 34903 ft | 453 kts | 151° |
| 2026-05-05 22:04 | 10.29692 | -80.39985 | 34900 ft | 452 kts | 151° |
| 2026-05-05 22:05 | 10.24173 | -80.36907 | 34894 ft | 452 kts | 150° |
| 2026-05-05 22:05 | 10.18659 | -80.33832 | 34892 ft | 452 kts | 150° |
| 2026-05-05 22:06 | 10.13147 | -80.30760 | 34888 ft | 452 kts | 151° |
| 2026-05-05 22:06 | 10.07632 | -80.27691 | 34886 ft | 452 kts | 150° |
| 2026-05-05 22:07 | 10.02131 | -80.24628 | 34894 ft | 451 kts | 151° |
| 2026-05-05 22:07 | 9.96626 | -80.21563 | 34894 ft | 450 kts | 151° |
| 2026-05-05 22:08 | 9.91128 | -80.18507 | 34895 ft | 450 kts | 150° |
| 2026-05-05 22:08 | 9.85646 | -80.15452 | 34897 ft | 449 kts | 150° |
| 2026-05-05 22:09 | 9.80196 | -80.12421 | 34890 ft | 449 kts | 150° |
| 2026-05-05 22:09 | 9.74717 | -80.09375 | 34885 ft | 448 kts | 150° |
| 2026-05-05 22:10 | 9.69245 | -80.06333 | 34885 ft | 448 kts | 150° |
| 2026-05-05 22:10 | 9.63799 | -80.03309 | 34878 ft | 449 kts | 150° |
| 2026-05-05 22:11 | 9.58314 | -80.00264 | 34869 ft | 449 kts | 150° |
| 2026-05-05 22:11 | 9.52827 | -79.97215 | 34865 ft | 450 kts | 150° |
| 2026-05-05 22:12 | 9.47333 | -79.94165 | 34862 ft | 450 kts | 150° |
| 2026-05-05 22:12 | 9.41840 | -79.91114 | 34865 ft | 450 kts | 150° |
| 2026-05-05 22:13 | 9.36341 | -79.88065 | 34868 ft | 450 kts | 150° |
| 2026-05-05 22:13 | 9.30837 | -79.85018 | 34866 ft | 451 kts | 150° |
| 2026-05-05 22:14 | 9.25373 | -79.81989 | 34862 ft | 451 kts | 151° |
| 2026-05-05 22:14 | 9.19866 | -79.78941 | 34861 ft | 452 kts | 151° |
| 2026-05-05 22:15 | 9.14353 | -79.75893 | 34874 ft | 451 kts | 151° |
| 2026-05-05 22:15 | 9.08856 | -79.72853 | 34880 ft | 450 kts | 151° |
| 2026-05-05 22:16 | 9.03364 | -79.69814 | 34870 ft | 450 kts | 151° |
| 2026-05-05 22:16 | 8.97878 | -79.66776 | 34867 ft | 449 kts | 150° |
| 2026-05-05 22:17 | 8.92390 | -79.63738 | 34859 ft | 449 kts | 151° |
| 2026-05-05 22:17 | 8.86908 | -79.60712 | 34862 ft | 449 kts | 151° |
| 2026-05-05 22:18 | 8.81424 | -79.57682 | 34862 ft | 449 kts | 151° |
| 2026-05-05 22:18 | 8.75957 | -79.54631 | 34860 ft | 449 kts | 150° |
| 2026-05-05 22:19 | 8.70566 | -79.51452 | 34860 ft | 448 kts | 148° |
| 2026-05-05 22:19 | 8.65234 | -79.48252 | 34855 ft | 449 kts | 149° |
| 2026-05-05 22:20 | 8.59848 | -79.45057 | 34857 ft | 449 kts | 149° |